Time;durP1;ratioP1;P1;durP2;ratioP2;P2;SDS_P1;SDS_P2;PMS_P1;PMS_P2;Temp;Humidity;BMP_temperature;BMP_pressure;BME280_temperature;BME280_humidity;BME280_pressure;Samples;Min_cycle;Max_cycle;Signal;HPM_P1;HPM_P2
2021/06/24 13:34:15;;;;;;;4.50;1.90;;;;;;;;;;7112598;27;20578;-81
2021/06/24 13:37:48;;;;;;;13.00;2.20;;;;;;;;;;7094165;27;20088;-85
2021/06/24 13:41:08;;;;;;;10.60;2.10;;;;;;;;;;7060434;27;20079;-81
2021/06/24 13:44:29;;;;;;;3.50;2.00;;;;;;;;;;7080510;27;20042;-82
2021/06/24 13:47:49;;;;;;;4.90;1.90;;;;;;;;;;7055804;27;20101;-81
2021/06/24 13:51:10;;;;;;;4.10;2.15;;;;;;;;;;7097262;27;20039;-81
2021/06/24 13:54:30;;;;;;;7.55;2.42;;;;;;;;;;7094886;27;20066;-83
2021/06/24 13:57:51;;;;;;;5.07;2.17;;;;;;;;;;7070194;27;20449;-82
2021/06/24 14:01:12;;;;;;;8.07;2.13;;;;;;;;;;7091792;27;20047;-81
2021/06/24 14:04:32;;;;;;;9.85;2.78;;;;;;;;;;7091486;27;20119;-81
2021/06/24 14:07:53;;;;;;;21.15;3.05;;;;;;;;;;7093708;27;20035;-81
2021/06/24 14:11:15;;;;;;;5.72;2.20;;;;;;;;;;7098252;27;20141;-81
2021/06/24 14:14:36;;;;;;;9.55;1.95;;;;;;;;;;7094722;27;20067;-82
2021/06/24 14:18:01;;;;;;;4.47;2.05;;;;;;;;;;7079574;27;20529;-82
2021/06/24 14:21:23;;;;;;;6.32;2.00;;;;;;;;;;7101380;27;20052;-81
2021/06/24 14:24:44;;;;;;;4.20;2.08;;;;;;;;;;7079573;27;20044;-82
2021/06/24 14:28:04;;;;;;;6.82;2.03;;;;;;;;;;7060765;27;20042;-81
2021/06/24 14:31:25;;;;;;;8.25;2.03;;;;;;;;;;7061159;27;20090;-82
2021/06/24 14:34:46;;;;;;;3.17;1.58;;;;;;;;;;7091393;27;20092;-84
2021/06/24 14:38:07;;;;;;;6.88;1.90;;;;;;;;;;7102600;27;20047;-81
2021/06/24 14:41:27;;;;;;;4.45;1.70;;;;;;;;;;7102217;27;20094;-83
2021/06/24 14:44:48;;;;;;;8.23;2.35;;;;;;;;;;7088070;27;20078;-82
2021/06/24 14:48:09;;;;;;;3.83;1.63;;;;;;;;;;7064539;27;20114;-83
2021/06/24 14:51:30;;;;;;;3.47;1.88;;;;;;;;;;7051539;28;20055;-82
2021/06/24 14:54:50;;;;;;;7.40;2.05;;;;;;;;;;7048839;28;20039;-83
2021/06/24 14:58:11;;;;;;;4.25;1.95;;;;;;;;;;7081030;27;20047;-82
2021/06/24 15:01:31;;;;;;;5.90;1.98;;;;;;;;;;7078546;27;20449;-84
2021/06/24 15:04:52;;;;;;;2.28;1.63;;;;;;;;;;7069308;28;20043;-84
2021/06/24 15:08:12;;;;;;;4.35;2.30;;;;;;;;;;7054177;28;20054;-83
2021/06/24 15:11:32;;;;;;;8.88;1.88;;;;;;;;;;7056971;28;20051;-85
2021/06/24 15:14:53;;;;;;;4.13;1.80;;;;;;;;;;7070744;27;20043;-82
2021/06/24 15:18:13;;;;;;;3.50;1.80;;;;;;;;;;7071860;28;20431;-83
2021/06/24 15:21:34;;;;;;;3.58;1.58;;;;;;;;;;7069251;28;20095;-84
2021/06/24 15:24:54;;;;;;;5.70;2.00;;;;;;;;;;7077700;27;20430;-82
2021/06/24 15:28:16;;;;;;;9.77;2.60;;;;;;;;;;7074666;27;20481;-81
2021/06/24 15:31:37;;;;;;;6.22;2.67;;;;;;;;;;7071788;27;20043;-80
2021/06/24 15:34:58;;;;;;;9.38;2.10;;;;;;;;;;7067864;28;20042;-83
2021/06/24 15:38:18;;;;;;;6.28;2.05;;;;;;;;;;7067433;28;20043;-82
2021/06/24 15:41:39;;;;;;;6.78;1.90;;;;;;;;;;7079490;28;20085;-83
2021/06/24 15:45:00;;;;;;;5.93;2.60;;;;;;;;;;7076815;28;20092;-81
2021/06/24 15:48:21;;;;;;;8.57;2.60;;;;;;;;;;7051542;28;20400;-85
2021/06/24 15:51:42;;;;;;;5.85;1.80;;;;;;;;;;7075348;28;20665;-80
2021/06/24 15:55:04;;;;;;;8.52;2.50;;;;;;;;;;7077263;27;20044;-80
2021/06/24 15:58:24;;;;;;;9.32;2.25;;;;;;;;;;7061234;28;20358;-80
2021/06/24 16:01:45;;;;;;;4.55;2.40;;;;;;;;;;7073948;27;20498;-79
2021/06/24 16:05:06;;;;;;;4.43;1.83;;;;;;;;;;7050791;28;20100;-82
2021/06/24 16:08:26;;;;;;;4.28;2.00;;;;;;;;;;7075600;27;20047;-81
2021/06/24 16:11:47;;;;;;;3.92;1.80;;;;;;;;;;7080661;27;20080;-82
2021/06/24 16:15:09;;;;;;;11.63;2.33;;;;;;;;;;7056397;28;20495;-82
2021/06/24 16:18:29;;;;;;;3.97;1.90;;;;;;;;;;7047638;28;20080;-81
2021/06/24 16:21:50;;;;;;;2.50;1.83;;;;;;;;;;7069197;27;20047;-81
2021/06/24 16:25:13;;;;;;;6.25;1.80;;;;;;;;;;7078497;27;20079;-81
2021/06/24 16:28:33;;;;;;;4.32;1.92;;;;;;;;;;7079216;28;20039;-81
2021/06/24 16:31:54;;;;;;;2.72;1.85;;;;;;;;;;7059367;28;20078;-81
2021/06/24 16:35:14;;;;;;;3.30;1.90;;;;;;;;;;7068010;28;20079;-82
2021/06/24 16:38:35;;;;;;;11.38;2.20;;;;;;;;;;7055541;28;20043;-82
2021/06/24 16:41:57;;;;;;;3.55;1.75;;;;;;;;;;7075964;27;20066;-88
2021/06/24 16:45:22;;;;;;;11.48;2.00;;;;;;;;;;7054245;28;20055;-82
2021/06/24 16:48:43;;;;;;;5.30;2.20;;;;;;;;;;7061624;28;20046;-83
2021/06/24 16:52:04;;;;;;;15.77;1.80;;;;;;;;;;7034334;28;20047;-82
2021/06/24 16:55:24;;;;;;;4.45;1.73;;;;;;;;;;7054282;28;20050;-83
2021/06/24 16:58:45;;;;;;;11.63;1.80;;;;;;;;;;7049705;28;20075;-83
2021/06/24 17:02:07;;;;;;;7.75;1.83;;;;;;;;;;7059753;28;20052;-83
2021/06/24 17:05:27;;;;;;;4.15;2.03;;;;;;;;;;7071205;27;20059;-83
2021/06/24 17:08:48;;;;;;;6.88;1.77;;;;;;;;;;7058441;27;20043;-81
2021/06/24 17:12:09;;;;;;;2.55;1.52;;;;;;;;;;7054421;27;20079;-82
2021/06/24 17:15:29;;;;;;;3.80;1.30;;;;;;;;;;7045304;28;20091;-82
2021/06/24 17:18:50;;;;;;;9.40;1.90;;;;;;;;;;7066400;28;20047;-82
2021/06/24 17:22:12;;;;;;;4.20;1.65;;;;;;;;;;7057587;28;20405;-82
2021/06/24 17:25:32;;;;;;;9.70;1.77;;;;;;;;;;7043922;28;20097;-82
2021/06/24 17:28:52;;;;;;;2.65;1.30;;;;;;;;;;7074710;28;20075;-82
2021/06/24 17:32:13;;;;;;;6.47;2.53;;;;;;;;;;7072705;27;20096;-82
2021/06/24 17:35:34;;;;;;;3.60;1.80;;;;;;;;;;7066527;28;20051;-82
2021/06/24 17:38:54;;;;;;;4.38;1.88;;;;;;;;;;7037389;28;20187;-80
2021/06/24 17:42:15;;;;;;;6.35;1.75;;;;;;;;;;7055361;28;20079;-80
2021/06/24 17:45:35;;;;;;;4.40;1.55;;;;;;;;;;7044310;28;20104;-80
2021/06/24 17:48:56;;;;;;;6.00;1.50;;;;;;;;;;7064516;28;20123;-78
2021/06/24 17:52:16;;;;;;;3.35;1.65;;;;;;;;;;7076243;28;20099;-80
2021/06/24 17:55:39;;;;;;;4.18;1.58;;;;;;;;;;7057462;27;20039;-82
2021/06/24 17:59:00;;;;;;;2.65;1.55;;;;;;;;;;7071347;27;20485;-83
2021/06/24 18:02:21;;;;;;;3.70;1.40;;;;;;;;;;7057574;27;20047;-83
2021/06/24 18:05:41;;;;;;;3.45;1.30;;;;;;;;;;7068830;27;20039;-81
2021/06/24 18:09:02;;;;;;;3.25;1.40;;;;;;;;;;7055718;28;20048;-81
2021/06/24 18:12:22;;;;;;;3.20;1.33;;;;;;;;;;7048783;28;20063;-81
2021/06/24 18:15:43;;;;;;;2.78;1.58;;;;;;;;;;7071719;27;20492;-82
2021/06/24 18:19:03;;;;;;;6.03;1.70;;;;;;;;;;7074983;27;20099;-81
2021/06/24 18:22:24;;;;;;;2.33;1.40;;;;;;;;;;7060182;28;20059;-82
2021/06/24 18:25:44;;;;;;;6.15;1.63;;;;;;;;;;7066361;28;20071;-82
2021/06/24 18:29:04;;;;;;;2.67;1.63;;;;;;;;;;7071449;28;20042;-81
2021/06/24 18:32:25;;;;;;;10.90;1.67;;;;;;;;;;7079917;27;20138;-86
2021/06/24 18:35:47;;;;;;;2.80;1.70;;;;;;;;;;7049733;28;20045;-81
2021/06/24 18:39:08;;;;;;;5.35;1.52;;;;;;;;;;7076979;28;20093;-81
2021/06/24 18:42:28;;;;;;;3.35;1.48;;;;;;;;;;7056506;28;20043;-81
2021/06/24 18:45:48;;;;;;;5.30;1.88;;;;;;;;;;7078623;28;20040;-81
2021/06/24 18:49:09;;;;;;;2.47;1.33;;;;;;;;;;7070586;28;20051;-81
2021/06/24 18:52:29;;;;;;;8.20;1.58;;;;;;;;;;7067582;28;20108;-82
2021/06/24 18:55:50;;;;;;;4.95;1.50;;;;;;;;;;7079313;28;20042;-81
2021/06/24 18:59:10;;;;;;;2.65;1.40;;;;;;;;;;7078528;28;20468;-81
2021/06/24 19:02:31;;;;;;;3.78;1.20;;;;;;;;;;7078857;28;20134;-81
2021/06/24 19:05:52;;;;;;;8.00;1.52;;;;;;;;;;7067020;28;20122;-81
2021/06/24 19:09:13;;;;;;;5.43;1.52;;;;;;;;;;7064125;28;20073;-81
2021/06/24 19:12:33;;;;;;;3.53;1.33;;;;;;;;;;7047654;28;20043;-82
2021/06/24 19:15:54;;;;;;;2.78;1.40;;;;;;;;;;7057710;28;20052;-81
2021/06/24 19:19:15;;;;;;;1.17;1.00;;;;;;;;;;7067252;28;20387;-81
2021/06/24 19:22:36;;;;;;;6.78;1.40;;;;;;;;;;7078734;28;20039;-81
2021/06/24 19:25:58;;;;;;;2.78;1.20;;;;;;;;;;7078395;28;20054;-81
2021/06/24 19:29:18;;;;;;;4.03;1.13;;;;;;;;;;7077253;27;20055;-81
2021/06/24 19:32:39;;;;;;;4.82;1.15;;;;;;;;;;7053466;28;20054;-81
2021/06/24 19:35:59;;;;;;;2.47;1.20;;;;;;;;;;7082690;27;20070;-81
2021/06/24 19:39:19;;;;;;;1.92;1.08;;;;;;;;;;7081810;28;20042;-81
2021/06/24 19:42:40;;;;;;;3.45;1.30;;;;;;;;;;7082507;27;20050;-81
2021/06/24 19:46:00;;;;;;;1.55;1.20;;;;;;;;;;7064117;28;20071;-81
2021/06/24 19:49:21;;;;;;;2.65;1.30;;;;;;;;;;7081894;28;20047;-82
2021/06/24 19:52:41;;;;;;;3.88;1.20;;;;;;;;;;7082461;28;20043;-81
2021/06/24 19:56:02;;;;;;;2.97;1.02;;;;;;;;;;7082022;28;20043;-81
2021/06/24 19:59:22;;;;;;;3.50;1.17;;;;;;;;;;7081613;28;20480;-81
2021/06/24 20:02:43;;;;;;;1.67;1.08;;;;;;;;;;7082030;28;20054;-80
2021/06/24 20:06:04;;;;;;;1.52;1.17;;;;;;;;;;7082323;28;20047;-81
2021/06/24 20:09:25;;;;;;;1.42;1.08;;;;;;;;;;7081161;28;20047;-81
2021/06/24 20:12:46;;;;;;;3.05;1.30;;;;;;;;;;7082069;28;20086;-81
2021/06/24 20:16:07;;;;;;;3.17;1.27;;;;;;;;;;7081649;28;20133;-81
2021/06/24 20:19:27;;;;;;;1.08;0.98;;;;;;;;;;7080812;28;20098;-81
2021/06/24 20:22:49;;;;;;;1.95;0.90;;;;;;;;;;7081335;28;20047;-81
2021/06/24 20:26:09;;;;;;;2.22;1.00;;;;;;;;;;7081968;28;20053;-81
2021/06/24 20:29:31;;;;;;;1.42;1.10;;;;;;;;;;7078472;28;20043;-81
2021/06/24 20:32:52;;;;;;;2.65;1.13;;;;;;;;;;7071391;28;20051;-81
2021/06/24 20:36:14;;;;;;;3.50;1.08;;;;;;;;;;7049064;28;20481;-81
2021/06/24 20:39:34;;;;;;;1.55;1.08;;;;;;;;;;7055401;28;20096;-82
2021/06/24 20:42:55;;;;;;;2.45;1.00;;;;;;;;;;7071878;28;20055;-81
2021/06/24 20:46:17;;;;;;;1.58;0.90;;;;;;;;;;7081221;28;20082;-82
2021/06/24 20:49:37;;;;;;;1.25;0.90;;;;;;;;;;7080630;28;20461;-81
2021/06/24 20:52:58;;;;;;;1.45;1.05;;;;;;;;;;7076807;28;20043;-81
2021/06/24 20:56:18;;;;;;;1.10;1.00;;;;;;;;;;7070541;28;20369;-81
2021/06/24 20:59:39;;;;;;;1.50;0.85;;;;;;;;;;7079919;28;20419;-81
2021/06/24 21:02:59;;;;;;;1.20;0.88;;;;;;;;;;7081309;28;20096;-81
2021/06/24 21:06:20;;;;;;;3.13;1.10;;;;;;;;;;7080530;28;20074;-81
2021/06/24 21:09:41;;;;;;;1.52;0.90;;;;;;;;;;7077080;28;20051;-81
2021/06/24 21:13:02;;;;;;;2.75;1.23;;;;;;;;;;7038066;28;20048;-82
2021/06/24 21:16:23;;;;;;;1.83;1.05;;;;;;;;;;7034403;28;20043;-82
2021/06/24 21:19:45;;;;;;;0.77;0.77;;;;;;;;;;7066771;27;20096;-81
2021/06/24 21:23:06;;;;;;;1.42;1.05;;;;;;;;;;7078901;27;20051;-82
2021/06/24 21:26:27;;;;;;;6.93;1.20;;;;;;;;;;7053126;28;20515;-81
2021/06/24 21:29:47;;;;;;;2.22;0.93;;;;;;;;;;7071746;28;20036;-82
2021/06/24 21:33:08;;;;;;;1.13;1.00;;;;;;;;;;7072196;27;20039;-81
2021/06/24 21:36:28;;;;;;;1.48;1.20;;;;;;;;;;7059801;27;20319;-82
2021/06/24 21:39:49;;;;;;;0.88;0.85;;;;;;;;;;7075932;27;20046;-81
2021/06/24 21:43:10;;;;;;;2.58;0.95;;;;;;;;;;7077984;27;20043;-82
2021/06/24 21:46:30;;;;;;;2.85;0.90;;;;;;;;;;7074407;27;20039;-81
2021/06/24 21:49:51;;;;;;;3.20;1.10;;;;;;;;;;7047933;28;20440;-81
2021/06/24 21:53:11;;;;;;;0.98;0.90;;;;;;;;;;7058029;28;20058;-82
2021/06/24 21:56:34;;;;;;;0.80;0.80;;;;;;;;;;7082433;28;20042;-82
2021/06/24 21:59:55;;;;;;;1.77;1.20;;;;;;;;;;7062545;28;20043;-82
2021/06/24 22:03:15;;;;;;;1.10;0.93;;;;;;;;;;7081721;28;20154;-82
2021/06/24 22:06:36;;;;;;;2.92;1.10;;;;;;;;;;7063904;28;20043;-82
2021/06/24 22:09:56;;;;;;;1.85;1.20;;;;;;;;;;7081760;28;20500;-82
2021/06/24 22:13:17;;;;;;;3.10;1.00;;;;;;;;;;7082454;28;20070;-82
2021/06/24 22:16:37;;;;;;;1.45;0.82;;;;;;;;;;7064091;28;20477;-84
2021/06/24 22:19:58;;;;;;;1.83;1.10;;;;;;;;;;7082342;28;20473;-84
2021/06/24 22:23:18;;;;;;;3.17;1.15;;;;;;;;;;7071648;28;20079;-82
2021/06/24 22:26:39;;;;;;;1.55;1.00;;;;;;;;;;7081361;28;20408;-82
2021/06/24 22:29:59;;;;;;;1.92;0.90;;;;;;;;;;7057272;28;20088;-84
2021/06/24 22:33:19;;;;;;;0.88;0.88;;;;;;;;;;7064582;28;20489;-83
2021/06/24 22:36:40;;;;;;;1.60;0.90;;;;;;;;;;7064411;28;20393;-82
2021/06/24 22:40:00;;;;;;;1.13;0.90;;;;;;;;;;7083711;28;20503;-81
2021/06/24 22:43:21;;;;;;;2.22;1.33;;;;;;;;;;7062722;28;20081;-82
2021/06/24 22:46:41;;;;;;;1.10;1.00;;;;;;;;;;7083880;27;20095;-82
2021/06/24 22:50:06;;;;;;;0.80;0.80;;;;;;;;;;7065248;28;20043;-83
2021/06/24 22:53:27;;;;;;;1.05;0.80;;;;;;;;;;7069226;28;20057;-83
2021/06/24 22:56:47;;;;;;;0.88;0.88;;;;;;;;;;7083734;28;20043;-83
2021/06/24 23:00:09;;;;;;;2.42;0.98;;;;;;;;;;7064904;28;20046;-82
2021/06/24 23:03:29;;;;;;;1.23;0.88;;;;;;;;;;7064509;27;20043;-82
2021/06/24 23:06:50;;;;;;;2.25;0.90;;;;;;;;;;7077028;28;20054;-82
2021/06/24 23:10:10;;;;;;;1.02;0.80;;;;;;;;;;7074899;28;20052;-81
2021/06/24 23:13:31;;;;;;;0.95;0.90;;;;;;;;;;7060767;27;20039;-82
2021/06/24 23:16:51;;;;;;;1.52;1.00;;;;;;;;;;7083284;28;20491;-83
2021/06/24 23:20:12;;;;;;;1.00;0.90;;;;;;;;;;7064441;28;20043;-83
2021/06/24 23:23:32;;;;;;;1.38;0.70;;;;;;;;;;7063899;28;20053;-83
2021/06/24 23:26:53;;;;;;;1.00;0.70;;;;;;;;;;7064083;28;20140;-82
2021/06/24 23:30:14;;;;;;;1.17;1.00;;;;;;;;;;7082136;28;20107;-81
2021/06/24 23:33:34;;;;;;;1.05;0.95;;;;;;;;;;7082429;28;20047;-78
2021/06/24 23:36:55;;;;;;;1.17;0.80;;;;;;;;;;7082862;27;20157;-79
2021/06/24 23:40:16;;;;;;;1.55;0.75;;;;;;;;;;7055715;28;20043;-79
2021/06/24 23:43:36;;;;;;;2.67;1.00;;;;;;;;;;7079711;28;20039;-79
2021/06/24 23:46:57;;;;;;;1.58;0.90;;;;;;;;;;7063005;28;20047;-79
2021/06/24 23:50:17;;;;;;;3.42;0.85;;;;;;;;;;7062828;28;20396;-79
2021/06/24 23:53:38;;;;;;;2.70;0.82;;;;;;;;;;7046766;28;20123;-79
2021/06/24 23:56:58;;;;;;;0.77;0.70;;;;;;;;;;7080640;28;20055;-80
